createdAt,value
2018-12-12T00:00:17.034Z,91.4
2018-12-12T00:01:17.129Z,91.7
2018-12-12T00:02:16.403Z,91.8
2018-12-12T00:03:16.674Z,91.8
2018-12-12T00:04:16.936Z,91.8
2018-12-12T00:05:17.211Z,91.8
2018-12-12T00:06:16.484Z,91.8
2018-12-12T00:07:16.763Z,91.8
2018-12-12T00:08:17.036Z,91.8
2018-12-12T00:09:16.299Z,91.8
2018-12-12T00:10:16.580Z,91.8
2018-12-12T00:11:16.626Z,91.8
2018-12-12T00:12:16.887Z,91.7
2018-12-12T00:13:17.140Z,91.8
2018-12-12T00:14:16.408Z,91.8
2018-12-12T00:15:16.684Z,91.9
2018-12-12T00:16:16.950Z,91.8
2018-12-12T00:17:17.221Z,91.8
2018-12-12T00:18:16.484Z,91.9
2018-12-12T00:19:16.750Z,92.1
2018-12-12T00:20:17.040Z,91.9
2018-12-12T00:21:17.113Z,91.9
2018-12-12T00:22:16.382Z,92.0
2018-12-12T00:23:16.638Z,91.8
2018-12-12T00:24:16.915Z,92.0
2018-12-12T00:25:17.181Z,91.8
2018-12-12T00:26:16.436Z,91.8
2018-12-12T00:27:16.706Z,91.8
2018-12-12T00:28:16.970Z,91.9
2018-12-12T00:29:17.241Z,91.9
2018-12-12T00:30:16.501Z,91.9
2018-12-12T00:31:16.711Z,91.8
2018-12-12T00:32:16.988Z,91.7
2018-12-12T00:33:17.228Z,91.8
2018-12-12T00:34:16.492Z,91.8
2018-12-12T00:35:16.763Z,92.0
2018-12-12T00:36:17.029Z,92.1
2018-12-12T00:37:16.288Z,92.0
2018-12-12T00:38:16.545Z,92.0
2018-12-12T00:39:16.814Z,92.0
2018-12-12T00:40:17.096Z,92.0
2018-12-12T00:41:17.158Z,91.9
2018-12-12T00:42:17.965Z,91.9
2018-12-12T00:43:17.231Z,92.0
2018-12-12T00:44:16.495Z,92.1
2018-12-12T00:45:16.753Z,92.1
2018-12-12T00:46:17.016Z,92.1
2018-12-12T00:47:16.276Z,92.0
2018-12-12T00:48:16.537Z,92.0
2018-12-12T00:49:16.801Z,91.9
2018-12-12T00:50:17.071Z,92.1
2018-12-12T00:51:17.113Z,92.1
2018-12-12T00:52:16.374Z,92.1
2018-12-12T00:53:16.641Z,92.2
2018-12-12T00:54:16.909Z,92.3
2018-12-12T00:55:17.225Z,92.5
2018-12-12T00:56:16.506Z,92.3
2018-12-12T00:57:16.763Z,92.2
2018-12-12T00:58:17.023Z,92.2
2018-12-12T00:59:16.287Z,92.2
2018-12-12T01:00:16.551Z,92.3
2018-12-12T01:01:16.627Z,92.5
2018-12-12T01:02:16.892Z,92.5
2018-12-12T01:03:17.163Z,92.5
2018-12-12T01:04:16.434Z,92.5
2018-12-12T01:05:16.690Z,92.4
2018-12-12T01:06:16.980Z,92.3
2018-12-12T01:07:17.240Z,92.4
2018-12-12T01:08:16.490Z,92.5
2018-12-12T01:09:16.757Z,92.3
2018-12-12T01:10:17.040Z,92.4
2018-12-12T01:11:17.073Z,92.5
2018-12-12T01:12:16.337Z,92.4
2018-12-12T01:13:16.599Z,92.4
2018-12-12T01:14:16.868Z,92.4
2018-12-12T01:15:17.178Z,92.4
2018-12-12T01:16:16.446Z,92.4
2018-12-12T01:17:16.776Z,92.5
2018-12-12T01:18:17.042Z,92.5
2018-12-12T01:19:16.314Z,92.6
2018-12-12T01:20:16.642Z,92.4
2018-12-12T01:21:16.658Z,92.5
2018-12-12T01:22:16.922Z,92.8
2018-12-12T01:23:17.189Z,92.6
2018-12-12T01:24:16.448Z,92.5
2018-12-12T01:25:16.720Z,92.5
2018-12-12T01:26:16.989Z,92.5
2018-12-12T01:27:17.254Z,92.5
2018-12-12T01:28:16.527Z,92.5
2018-12-12T01:29:16.779Z,92.3
2018-12-12T01:30:17.055Z,92.5
2018-12-12T01:31:17.096Z,92.2
2018-12-12T01:32:16.362Z,92.3
2018-12-12T01:33:16.628Z,92.4
2018-12-12T01:34:16.887Z,92.5
2018-12-12T01:35:17.149Z,92.4
2018-12-12T01:36:16.405Z,92.3
2018-12-12T01:37:16.679Z,92.3
2018-12-12T01:38:16.942Z,92.2
2018-12-12T01:39:17.201Z,92.3
2018-12-12T01:40:16.477Z,92.2
2018-12-12T01:41:16.531Z,92.2
2018-12-12T01:42:16.794Z,92.3
2018-12-12T01:43:17.317Z,92.4
2018-12-12T01:44:16.580Z,92.6
2018-12-12T01:45:16.849Z,92.5
2018-12-12T01:46:17.115Z,92.2
2018-12-12T01:47:16.387Z,92.7
2018-12-12T01:48:16.647Z,92.8
2018-12-12T01:49:16.930Z,92.7
2018-12-12T01:50:17.210Z,92.7
2018-12-12T01:51:16.275Z,92.8
2018-12-12T01:52:16.548Z,92.7
2018-12-12T01:53:16.807Z,92.9
2018-12-12T01:54:17.076Z,92.9
2018-12-12T01:55:16.333Z,92.5
2018-12-12T01:56:16.604Z,92.3
2018-12-12T01:57:16.866Z,92.3
2018-12-12T01:58:17.286Z,92.3
2018-12-12T01:59:16.569Z,92.7
2018-12-12T02:00:16.844Z,92.8
2018-12-12T02:01:16.884Z,92.8
2018-12-12T02:02:17.140Z,92.8
2018-12-12T02:03:16.406Z,92.5
2018-12-12T02:04:16.682Z,92.7
2018-12-12T02:05:16.960Z,92.7
2018-12-12T02:06:17.221Z,92.5
2018-12-12T02:07:16.482Z,92.8
2018-12-12T02:08:16.755Z,93.0
2018-12-12T02:09:17.010Z,92.7
2018-12-12T02:10:16.275Z,92.7
2018-12-12T02:11:16.340Z,92.7
2018-12-12T02:12:16.598Z,92.6
2018-12-12T02:13:16.888Z,92.5
2018-12-12T02:14:17.172Z,92.4
2018-12-12T02:15:16.434Z,92.7
2018-12-12T02:16:16.698Z,92.8
2018-12-12T02:17:16.966Z,92.8
2018-12-12T02:18:17.229Z,92.7
2018-12-12T02:19:16.497Z,92.5
2018-12-12T02:20:16.778Z,92.4
2018-12-12T02:21:16.826Z,92.4
2018-12-12T02:22:17.100Z,92.5
2018-12-12T02:23:16.350Z,92.5
2018-12-12T02:24:16.623Z,92.6
2018-12-12T02:25:16.885Z,92.8
2018-12-12T02:26:17.175Z,92.9
2018-12-12T02:27:16.432Z,92.8
2018-12-12T02:28:16.703Z,93.0
2018-12-12T02:29:16.962Z,93.0
2018-12-12T02:30:17.239Z,93.0
2018-12-12T02:31:16.318Z,92.8
2018-12-12T02:32:16.584Z,92.9
2018-12-12T02:33:16.854Z,92.9
2018-12-12T02:34:17.125Z,93.0
2018-12-12T02:35:16.402Z,93.2
2018-12-12T02:36:16.674Z,93.2
2018-12-12T02:37:16.945Z,93.2
2018-12-12T02:38:17.208Z,93.0
2018-12-12T02:39:16.480Z,93.0
2018-12-12T02:40:16.760Z,93.2
2018-12-12T02:41:16.809Z,93.1
2018-12-12T02:42:17.082Z,93.0
2018-12-12T02:43:16.334Z,93.2
2018-12-12T02:44:16.604Z,93.0
2018-12-12T02:45:16.870Z,93.5
2018-12-12T02:46:17.146Z,93.4
2018-12-12T02:47:16.418Z,93.3
2018-12-12T02:48:16.684Z,93.2
2018-12-12T02:49:16.937Z,93.0
2018-12-12T02:50:17.205Z,93.0
2018-12-12T02:51:16.299Z,92.9
2018-12-12T02:52:16.579Z,93.1
2018-12-12T02:53:16.845Z,93.1
2018-12-12T02:54:17.142Z,93.1
2018-12-12T02:55:16.400Z,93.2
2018-12-12T02:56:16.661Z,93.2
2018-12-12T02:57:16.914Z,93.2
2018-12-12T02:58:17.176Z,93.3
2018-12-12T02:59:16.442Z,93.2
2018-12-12T03:00:16.710Z,93.2
2018-12-12T03:01:16.793Z,93.2
2018-12-12T03:02:17.065Z,93.2
2018-12-12T03:03:16.332Z,93.2
2018-12-12T03:04:16.604Z,93.1
2018-12-12T03:05:16.890Z,93.2
2018-12-12T03:06:17.154Z,93.0
2018-12-12T03:07:16.432Z,93.0
2018-12-12T03:08:16.693Z,93.2
2018-12-12T03:09:16.966Z,93.3
2018-12-12T03:10:17.252Z,93.5
2018-12-12T03:11:16.303Z,93.5
2018-12-12T03:12:16.575Z,93.4
2018-12-12T03:13:16.841Z,93.3
2018-12-12T03:14:17.102Z,93.2
2018-12-12T03:15:16.361Z,92.9
2018-12-12T03:16:16.616Z,92.8
2018-12-12T03:17:16.892Z,93.1
2018-12-12T03:18:17.168Z,93.1
2018-12-12T03:19:16.429Z,93.1
2018-12-12T03:20:15.325Z,93.2
2018-12-12T03:21:16.401Z,93.0
2018-12-12T03:22:16.666Z,92.8
2018-12-12T03:23:16.967Z,92.9
2018-12-12T03:24:17.235Z,92.9
2018-12-12T03:25:16.502Z,93.0
2018-12-12T03:26:16.778Z,92.8
2018-12-12T03:27:17.040Z,92.8
2018-12-12T03:28:16.310Z,92.8
2018-12-12T03:29:16.582Z,92.8
2018-12-12T03:30:16.892Z,92.8
2018-12-12T03:31:16.917Z,92.9
2018-12-12T03:32:17.530Z,92.8
2018-12-12T03:33:16.820Z,92.8
2018-12-12T03:34:17.086Z,92.9
2018-12-12T03:35:16.330Z,92.8
2018-12-12T03:36:16.599Z,93.0
2018-12-12T03:37:16.853Z,93.3
2018-12-12T03:38:17.119Z,93.0
2018-12-12T03:39:16.385Z,93.2
2018-12-12T03:40:16.656Z,93.5
2018-12-12T03:41:16.697Z,93.7
2018-12-12T03:42:16.968Z,93.7
2018-12-12T03:43:17.250Z,93.8
2018-12-12T03:44:16.515Z,94.0
2018-12-12T03:45:16.797Z,94.5
2018-12-12T03:46:17.053Z,94.6
2018-12-12T03:47:16.312Z,94.9
2018-12-12T03:48:16.574Z,94.9
2018-12-12T03:49:16.836Z,95.0
2018-12-12T03:50:17.123Z,95.1
2018-12-12T03:51:17.180Z,95.2
2018-12-12T03:52:16.449Z,95.2
2018-12-12T03:53:16.712Z,95.4
2018-12-12T03:54:16.977Z,95.5
2018-12-12T03:55:17.247Z,95.6
2018-12-12T03:56:16.520Z,95.7
2018-12-12T03:57:16.787Z,95.8
2018-12-12T03:58:17.044Z,96.0
2018-12-12T03:59:16.321Z,96.2
2018-12-12T04:00:16.602Z,96.0
2018-12-12T04:01:16.680Z,95.8
2018-12-12T04:02:16.938Z,95.8
2018-12-12T04:03:17.210Z,95.7
2018-12-12T04:04:16.492Z,95.7
2018-12-12T04:05:16.765Z,95.5
2018-12-12T04:06:17.033Z,95.4
2018-12-12T04:07:16.306Z,95.4
2018-12-12T04:08:16.567Z,95.5
2018-12-12T04:09:16.826Z,95.4
2018-12-12T04:10:17.088Z,95.2
2018-12-12T04:11:17.156Z,95.4
2018-12-12T04:12:16.432Z,95.6
2018-12-12T04:13:16.711Z,95.2
2018-12-12T04:14:16.996Z,95.0
2018-12-12T04:15:16.264Z,94.9
2018-12-12T04:16:16.559Z,95.2
2018-12-12T04:17:16.823Z,95.1
2018-12-12T04:18:17.090Z,95.0
2018-12-12T04:19:16.364Z,95.0
2018-12-12T04:20:16.631Z,95.0
2018-12-12T04:21:16.698Z,94.8
2018-12-12T04:22:16.963Z,94.6
2018-12-12T04:23:17.239Z,94.5
2018-12-12T04:24:16.512Z,94.7
2018-12-12T04:25:16.785Z,94.4
2018-12-12T04:26:17.056Z,94.5
2018-12-12T04:27:16.332Z,94.4
2018-12-12T04:28:16.600Z,94.2
2018-12-12T04:29:16.861Z,94.3
2018-12-12T04:30:17.139Z,94.5
2018-12-12T04:31:17.196Z,94.2
2018-12-12T04:32:16.466Z,94.2
2018-12-12T04:33:16.731Z,94.2
2018-12-12T04:34:17.009Z,93.8
2018-12-12T04:35:16.266Z,93.7
2018-12-12T04:36:16.533Z,93.6
2018-12-12T04:37:16.800Z,94.0
2018-12-12T04:38:17.318Z,94.0
2018-12-12T04:39:16.585Z,93.8
2018-12-12T04:40:16.855Z,94.0
2018-12-12T04:41:16.996Z,93.8
2018-12-12T04:42:16.278Z,93.6
2018-12-12T04:43:16.550Z,93.4
2018-12-12T04:44:16.822Z,93.3
2018-12-12T04:45:17.099Z,93.5
2018-12-12T04:46:16.374Z,93.2
2018-12-12T04:47:16.694Z,93.2
2018-12-12T04:48:17.058Z,93.3
2018-12-12T04:49:16.341Z,93.1
2018-12-12T04:50:16.624Z,93.4
2018-12-12T04:51:16.726Z,93.3
2018-12-12T04:52:16.984Z,93.2
2018-12-12T04:53:18.107Z,93.2
2018-12-12T04:54:16.373Z,93.2
2018-12-12T04:55:16.636Z,92.7
2018-12-12T04:56:16.900Z,92.8
2018-12-12T04:57:17.169Z,92.7
2018-12-12T04:58:16.428Z,92.9
2018-12-12T04:59:16.684Z,92.7
2018-12-12T05:00:16.972Z,92.7
2018-12-12T05:01:17.027Z,93.2
2018-12-12T05:02:16.288Z,92.9
2018-12-12T05:03:16.555Z,92.9
2018-12-12T05:04:16.816Z,93.3
2018-12-12T05:05:17.086Z,92.9
2018-12-12T05:06:16.350Z,93.0
2018-12-12T05:07:16.615Z,92.9
2018-12-12T05:08:16.876Z,92.6
2018-12-12T05:09:17.458Z,92.6
2018-12-12T05:10:16.732Z,92.8
2018-12-12T05:11:16.768Z,92.8
2018-12-12T05:12:17.041Z,92.7
2018-12-12T05:13:16.310Z,92.6
2018-12-12T05:14:16.581Z,92.7
2018-12-12T05:15:16.854Z,92.8
2018-12-12T05:16:17.109Z,92.5
2018-12-12T05:17:16.381Z,92.5
2018-12-12T05:18:16.647Z,92.7
2018-12-12T05:19:16.915Z,92.3
2018-12-12T05:20:17.450Z,92.3
2018-12-12T05:21:16.264Z,93.0
2018-12-12T05:22:16.530Z,92.8
2018-12-12T05:23:16.792Z,92.3
2018-12-12T05:24:17.056Z,92.5
2018-12-12T05:25:16.345Z,92.1
2018-12-12T05:26:16.921Z,92.3
2018-12-12T05:27:17.175Z,92.4
2018-12-12T05:28:16.444Z,92.2
2018-12-12T05:29:16.734Z,92.2
2018-12-12T05:30:16.997Z,92.0
2018-12-12T05:31:17.066Z,92.0
2018-12-12T05:32:16.336Z,92.2
2018-12-12T05:33:16.602Z,92.3
2018-12-12T05:34:16.864Z,92.6
2018-12-12T05:35:17.135Z,92.2
2018-12-12T05:36:16.392Z,92.2
2018-12-12T05:37:16.660Z,92.2
2018-12-12T05:38:16.964Z,92.2
2018-12-12T05:39:17.219Z,92.5
2018-12-12T05:40:16.490Z,92.3
2018-12-12T05:41:16.555Z,92.2
2018-12-12T05:42:16.813Z,92.6
2018-12-12T05:43:17.075Z,92.3
2018-12-12T05:44:16.343Z,92.3
2018-12-12T05:45:16.613Z,92.4
2018-12-12T05:46:16.879Z,92.1
2018-12-12T05:47:17.138Z,92.1
2018-12-12T05:48:16.410Z,91.8
2018-12-12T05:49:16.673Z,92.0
2018-12-12T05:50:16.936Z,92.0
2018-12-12T05:51:17.004Z,92.0
2018-12-12T05:52:16.278Z,92.1
2018-12-12T05:53:16.567Z,91.9
2018-12-12T05:54:16.841Z,91.9
2018-12-12T05:55:17.483Z,91.8
2018-12-12T05:56:16.740Z,91.9
2018-12-12T05:57:17.010Z,92.1
2018-12-12T05:58:16.272Z,91.8
2018-12-12T05:59:16.539Z,91.9
2018-12-12T06:00:16.836Z,92.2
2018-12-12T06:01:16.863Z,92.2
2018-12-12T06:02:17.124Z,91.9
2018-12-12T06:03:16.390Z,92.0
2018-12-12T06:04:16.669Z,91.8
2018-12-12T06:05:16.960Z,91.8
2018-12-12T06:06:17.224Z,91.8
2018-12-12T06:07:16.484Z,92.0
2018-12-12T06:08:16.754Z,92.1
2018-12-12T06:09:17.013Z,92.0
2018-12-12T06:10:16.285Z,92.1
2018-12-12T06:11:16.359Z,92.0
2018-12-12T06:12:16.614Z,92.2
2018-12-12T06:13:16.878Z,92.2
2018-12-12T06:14:17.148Z,91.9
2018-12-12T06:15:16.431Z,92.0
2018-12-12T06:16:16.694Z,91.9
2018-12-12T06:17:16.964Z,91.9
2018-12-12T06:18:17.226Z,91.8
2018-12-12T06:19:16.487Z,91.8
2018-12-12T06:20:16.777Z,92.1
2018-12-12T06:21:16.817Z,92.0
2018-12-12T06:22:17.085Z,92.0
2018-12-12T06:23:16.359Z,92.1
2018-12-12T06:24:16.625Z,92.2
2018-12-12T06:25:16.890Z,92.1
2018-12-12T06:26:17.164Z,92.3
2018-12-12T06:27:16.432Z,92.1
2018-12-12T06:28:16.701Z,92.2
2018-12-12T06:29:16.964Z,92.2
2018-12-12T06:30:17.511Z,92.1
2018-12-12T06:31:16.309Z,92.0
2018-12-12T06:32:16.575Z,92.3
2018-12-12T06:33:16.838Z,92.3
2018-12-12T06:34:17.111Z,92.2
2018-12-12T06:35:16.405Z,92.6
2018-12-12T06:36:16.679Z,92.8
2018-12-12T06:37:16.950Z,92.9
2018-12-12T06:38:17.215Z,93.1
2018-12-12T06:39:16.478Z,93.0
2018-12-12T06:40:16.756Z,93.0
2018-12-12T06:41:16.812Z,92.8
2018-12-12T06:42:17.082Z,93.0
2018-12-12T06:43:16.345Z,93.0
2018-12-12T06:44:16.604Z,92.9
2018-12-12T06:45:16.891Z,92.8
2018-12-12T06:46:17.160Z,92.7
2018-12-12T06:47:16.416Z,92.9
2018-12-12T06:48:16.686Z,92.9
2018-12-12T06:49:16.955Z,93.1
2018-12-12T06:50:17.270Z,93.2
2018-12-12T06:51:16.276Z,93.3
2018-12-12T06:52:16.542Z,93.0
2018-12-12T06:53:16.803Z,93.0
2018-12-12T06:54:17.067Z,93.0
2018-12-12T06:55:16.332Z,93.0
2018-12-12T06:56:16.592Z,92.7
2018-12-12T06:57:16.859Z,93.0
2018-12-12T06:58:17.118Z,92.9
2018-12-12T06:59:16.377Z,92.5
2018-12-12T07:00:16.653Z,92.7
2018-12-12T07:01:16.715Z,92.7
2018-12-12T07:02:16.985Z,92.6
2018-12-12T07:03:17.253Z,92.4
2018-12-12T07:04:16.528Z,92.5
2018-12-12T07:05:16.800Z,92.5
2018-12-12T07:06:17.067Z,92.8
2018-12-12T07:07:16.334Z,92.8
2018-12-12T07:08:16.594Z,92.7
2018-12-12T07:09:16.858Z,92.8
2018-12-12T07:10:17.139Z,92.7
2018-12-12T07:11:17.186Z,92.6
2018-12-12T07:12:16.455Z,93.0
2018-12-12T07:13:16.716Z,93.1
2018-12-12T07:14:16.993Z,92.8
2018-12-12T07:15:16.301Z,92.7
2018-12-12T07:16:16.573Z,92.5
2018-12-12T07:17:16.841Z,92.7
2018-12-12T07:18:17.106Z,92.8
2018-12-12T07:19:16.362Z,92.5
2018-12-12T07:20:16.629Z,92.8
2018-12-12T07:21:16.700Z,92.4
2018-12-12T07:22:16.975Z,92.4
2018-12-12T07:23:17.242Z,92.2
2018-12-12T07:24:16.511Z,92.5
2018-12-12T07:25:16.783Z,92.7
2018-12-12T07:26:17.056Z,92.2
2018-12-12T07:27:16.312Z,92.2
2018-12-12T07:28:16.583Z,92.5
2018-12-12T07:29:16.851Z,92.3
2018-12-12T07:30:17.147Z,91.9
2018-12-12T07:31:17.208Z,92.1
2018-12-12T07:32:16.475Z,92.2
2018-12-12T07:33:16.758Z,92.3
2018-12-12T07:34:17.032Z,92.2
2018-12-12T07:35:16.284Z,92.2
2018-12-12T07:36:16.558Z,92.4
2018-12-12T07:37:16.822Z,92.5
2018-12-12T07:38:17.087Z,92.8
2018-12-12T07:39:18.192Z,92.6
2018-12-12T07:40:16.478Z,92.5
2018-12-12T07:41:16.543Z,92.8
2018-12-12T07:42:16.804Z,92.8
2018-12-12T07:43:17.083Z,92.8
2018-12-12T07:44:16.348Z,92.6
2018-12-12T07:45:16.809Z,92.8
2018-12-12T07:46:17.076Z,93.2
2018-12-12T07:47:16.335Z,93.1
2018-12-12T07:48:16.621Z,92.7
2018-12-12T07:49:16.896Z,92.8
2018-12-12T07:50:17.171Z,92.8
2018-12-12T07:51:17.229Z,92.8
2018-12-12T07:52:16.500Z,92.6
2018-12-12T07:53:16.769Z,92.8
2018-12-12T07:54:17.302Z,93.0
2018-12-12T07:55:16.560Z,92.8
2018-12-12T07:56:16.818Z,92.7
2018-12-12T07:57:17.111Z,93.0
2018-12-12T07:58:16.373Z,93.1
2018-12-12T07:59:16.659Z,92.9
2018-12-12T08:00:16.932Z,92.8
2018-12-12T08:01:16.993Z,92.9
2018-12-12T08:02:16.264Z,92.8
2018-12-12T08:03:16.526Z,92.9
2018-12-12T08:04:16.799Z,93.1
2018-12-12T08:05:17.065Z,92.9
2018-12-12T08:06:16.346Z,93.0
2018-12-12T08:07:16.659Z,92.8
2018-12-12T08:08:16.924Z,93.0
2018-12-12T08:09:17.186Z,93.0
2018-12-12T08:10:16.472Z,93.1
2018-12-12T08:11:16.527Z,93.0
2018-12-12T08:12:16.792Z,93.0
2018-12-12T08:13:17.048Z,93.1
2018-12-12T08:14:16.308Z,93.0
2018-12-12T08:15:16.567Z,93.2
2018-12-12T08:16:16.828Z,93.4
2018-12-12T08:17:17.128Z,93.4
2018-12-12T08:18:16.406Z,93.4
2018-12-12T08:19:16.659Z,93.2
2018-12-12T08:20:16.930Z,93.2
2018-12-12T08:21:17.006Z,93.4
2018-12-12T08:22:16.277Z,93.3
2018-12-12T08:23:16.542Z,93.3
2018-12-12T08:24:16.807Z,93.2
2018-12-12T08:25:17.088Z,93.3
2018-12-12T08:26:16.366Z,93.4
2018-12-12T08:27:16.632Z,93.6
2018-12-12T08:28:16.889Z,93.3
2018-12-12T08:29:17.160Z,93.8
2018-12-12T08:30:16.457Z,93.9
2018-12-12T08:31:16.498Z,93.9
2018-12-12T08:32:16.763Z,93.7
2018-12-12T08:33:17.027Z,93.8
2018-12-12T08:34:16.296Z,94.0
2018-12-12T08:35:16.575Z,93.7
2018-12-12T08:36:16.839Z,93.8
2018-12-12T08:37:17.114Z,94.0
2018-12-12T08:38:16.380Z,93.8
2018-12-12T08:39:16.654Z,94.2
2018-12-12T08:40:16.937Z,94.4
2018-12-12T08:41:16.996Z,94.2
2018-12-12T08:42:16.265Z,94.2
2018-12-12T08:43:16.602Z,94.0
2018-12-12T08:44:16.874Z,94.2
2018-12-12T08:45:17.153Z,94.2
2018-12-12T08:46:16.418Z,94.1
2018-12-12T08:47:16.680Z,94.2
2018-12-12T08:48:16.961Z,93.8
2018-12-12T08:49:17.222Z,93.8
2018-12-12T08:50:16.485Z,94.1
2018-12-12T08:51:16.552Z,94.2
2018-12-12T08:52:16.822Z,94.2
2018-12-12T08:53:17.094Z,94.3
2018-12-12T08:54:16.360Z,94.4
2018-12-12T08:55:18.070Z,94.2
2018-12-12T08:56:16.336Z,94.2
2018-12-12T08:57:16.619Z,94.2
2018-12-12T08:58:16.889Z,94.0
2018-12-12T08:59:17.162Z,94.0
2018-12-12T09:00:16.450Z,94.0
2018-12-12T09:01:16.515Z,94.0
2018-12-12T09:02:16.785Z,94.2
2018-12-12T09:03:17.882Z,94.2
2018-12-12T09:04:17.225Z,94.2
2018-12-12T09:05:16.485Z,93.8
2018-12-12T09:06:16.748Z,94.0
2018-12-12T09:07:17.031Z,94.0
2018-12-12T09:08:16.299Z,93.8
2018-12-12T09:09:16.561Z,93.8
2018-12-12T09:10:16.839Z,93.7
2018-12-12T09:11:16.880Z,93.8
2018-12-12T09:12:17.172Z,94.0
2018-12-12T09:13:16.438Z,93.7
2018-12-12T09:14:16.702Z,93.8
2018-12-12T09:15:16.969Z,93.8
2018-12-12T09:16:17.241Z,93.8
2018-12-12T09:17:16.516Z,93.5
2018-12-12T09:18:16.790Z,93.3
2018-12-12T09:19:17.071Z,93.8
2018-12-12T09:20:16.363Z,93.9
2018-12-12T09:21:16.407Z,93.6
2018-12-12T09:22:16.684Z,93.4
2018-12-12T09:23:16.971Z,93.5
2018-12-12T09:24:17.247Z,93.7
2018-12-12T09:25:16.514Z,93.7
2018-12-12T09:26:16.781Z,93.7
2018-12-12T09:27:17.045Z,93.7
2018-12-12T09:28:16.297Z,93.6
2018-12-12T09:29:16.566Z,93.2
2018-12-12T09:30:16.861Z,93.3
2018-12-12T09:31:16.920Z,93.2
2018-12-12T09:32:17.195Z,93.1
2018-12-12T09:33:16.463Z,93.4
2018-12-12T09:34:16.721Z,93.2
2018-12-12T09:35:16.993Z,92.5
2018-12-12T09:36:16.252Z,92.2
2018-12-12T09:37:16.535Z,92.2
2018-12-12T09:38:16.804Z,92.2
2018-12-12T09:39:17.076Z,92.1
2018-12-12T09:40:16.353Z,92.0
2018-12-12T09:41:16.404Z,91.8
2018-12-12T09:42:16.673Z,91.6
2018-12-12T09:43:16.935Z,91.4
2018-12-12T09:44:17.207Z,91.3
2018-12-12T09:45:21.935Z,91.4
2018-12-12T09:46:17.224Z,91.5
2018-12-12T09:47:16.483Z,90.9
2018-12-12T09:48:21.243Z,90.8
2018-12-12T09:49:16.574Z,91.1
2018-12-12T09:50:16.838Z,91.3
2018-12-12T09:51:16.906Z,91.0
2018-12-12T09:52:17.172Z,90.7
2018-12-12T09:53:16.445Z,90.8
2018-12-12T09:54:16.703Z,90.7
2018-12-12T09:55:16.973Z,90.7
2018-12-12T09:56:17.235Z,90.5
2018-12-12T09:57:16.498Z,90.7
2018-12-12T09:58:16.766Z,90.8
2018-12-12T09:59:17.046Z,91.0
2018-12-12T10:00:16.331Z,90.3
2018-12-12T10:01:16.366Z,90.0
2018-12-12T10:02:16.632Z,90.2
2018-12-12T10:03:16.897Z,90.1
2018-12-12T10:04:17.165Z,90.2
2018-12-12T10:05:16.426Z,89.8
2018-12-12T10:06:16.691Z,89.1
2018-12-12T10:07:16.951Z,89.0
2018-12-12T10:08:17.210Z,88.8
2018-12-12T10:09:16.496Z,88.8
2018-12-12T10:10:16.799Z,88.8
2018-12-12T10:11:16.851Z,89.8
2018-12-12T10:12:17.123Z,89.1
2018-12-12T10:13:16.383Z,89.1
2018-12-12T10:14:16.644Z,89.2
2018-12-12T10:15:16.914Z,88.8
2018-12-12T10:16:17.175Z,88.8
2018-12-12T10:17:16.437Z,88.6
2018-12-12T10:18:16.705Z,88.5
2018-12-12T10:19:16.977Z,88.5
2018-12-12T10:20:17.280Z,88.1
2018-12-12T10:21:16.334Z,88.4
2018-12-12T10:22:16.599Z,88.8
2018-12-12T10:23:16.873Z,89.3
2018-12-12T10:24:17.135Z,88.8
2018-12-12T10:25:16.402Z,88.2
2018-12-12T10:26:16.671Z,88.3
2018-12-12T10:27:16.933Z,88.6
2018-12-12T10:28:17.203Z,88.5
2018-12-12T10:29:16.463Z,88.4
2018-12-12T10:30:16.737Z,88.6
2018-12-12T10:31:16.801Z,88.1
2018-12-12T10:32:17.147Z,88.9
2018-12-12T10:33:16.486Z,88.0
2018-12-12T10:34:16.758Z,88.2
2018-12-12T10:35:17.034Z,87.5
2018-12-12T10:36:16.297Z,88.0
2018-12-12T10:37:16.557Z,87.0
2018-12-12T10:38:16.822Z,87.2
2018-12-12T10:39:17.085Z,87.7
2018-12-12T10:40:16.348Z,87.3
2018-12-12T10:41:16.422Z,87.2
2018-12-12T10:42:16.683Z,86.5
2018-12-12T10:43:16.956Z,87.0
2018-12-12T10:44:17.220Z,87.2
2018-12-12T10:45:16.487Z,87.2
2018-12-12T10:46:16.754Z,86.7
2018-12-12T10:47:17.015Z,86.5
2018-12-12T10:48:16.280Z,86.5
2018-12-12T10:49:16.549Z,86.8
2018-12-12T10:50:16.834Z,87.0
2018-12-12T10:51:16.862Z,86.7
2018-12-12T10:52:17.128Z,86.4
2018-12-12T10:53:16.384Z,86.3
2018-12-12T10:54:16.648Z,86.2
2018-12-12T10:55:16.910Z,86.3
2018-12-12T10:56:17.175Z,86.2
2018-12-12T10:57:16.443Z,86.6
2018-12-12T10:58:16.713Z,86.9
2018-12-12T10:59:16.972Z,86.8
2018-12-12T11:00:17.276Z,86.9
2018-12-12T11:01:16.334Z,86.5
2018-12-12T11:02:16.596Z,87.0
2018-12-12T11:03:16.865Z,86.7
2018-12-12T11:04:17.130Z,86.5
2018-12-12T11:05:16.415Z,87.1
2018-12-12T11:06:16.687Z,86.8
2018-12-12T11:07:16.959Z,86.5
2018-12-12T11:08:17.225Z,86.8
2018-12-12T11:09:16.484Z,86.7
2018-12-12T11:10:16.764Z,86.8
2018-12-12T11:11:16.797Z,86.8
2018-12-12T11:12:17.069Z,87.2
2018-12-12T11:13:16.326Z,87.2
2018-12-12T11:14:16.605Z,87.2
2018-12-12T11:15:16.889Z,86.8
2018-12-12T11:16:17.432Z,86.1
2018-12-12T11:17:16.694Z,86.6
2018-12-12T11:18:16.956Z,86.3
2018-12-12T11:19:17.215Z,86.3
2018-12-12T11:20:16.489Z,86.7
2018-12-12T11:21:16.552Z,86.8
2018-12-12T11:22:16.808Z,86.7
2018-12-12T11:23:17.063Z,86.7
2018-12-12T11:24:16.326Z,85.5
2018-12-12T11:25:16.592Z,85.2
2018-12-12T11:26:16.857Z,85.2
2018-12-12T11:27:17.121Z,85.5
2018-12-12T11:28:16.391Z,85.0
2018-12-12T11:29:16.657Z,85.3
2018-12-12T11:30:16.945Z,85.8
2018-12-12T11:31:16.997Z,85.2
2018-12-12T11:32:16.259Z,84.5
2018-12-12T11:33:16.524Z,82.5
2018-12-12T11:34:16.790Z,82.0
2018-12-12T11:35:17.056Z,81.3
2018-12-12T11:36:16.340Z,82.8
2018-12-12T11:37:16.606Z,81.9
2018-12-12T11:38:16.873Z,82.2
2018-12-12T11:39:17.123Z,82.3
2018-12-12T11:40:16.419Z,81.2
2018-12-12T11:41:16.466Z,81.9
2018-12-12T11:42:16.728Z,81.7
2018-12-12T11:43:16.999Z,81.5
2018-12-12T11:44:16.262Z,81.8
2018-12-12T11:45:16.552Z,81.9
2018-12-12T11:46:16.898Z,81.1
2018-12-12T11:47:17.180Z,81.1
2018-12-12T11:48:16.440Z,82.4
2018-12-12T11:49:16.706Z,81.5
2018-12-12T11:50:16.977Z,81.3
2018-12-12T11:51:17.044Z,81.4
2018-12-12T11:52:16.308Z,81.2
2018-12-12T11:53:16.593Z,81.3
2018-12-12T11:54:16.859Z,81.4
2018-12-12T11:55:17.134Z,81.5
2018-12-12T11:56:16.520Z,81.8
2018-12-12T11:57:16.771Z,81.8
2018-12-12T11:58:17.038Z,81.9
2018-12-12T11:59:16.296Z,81.6
2018-12-12T12:00:16.587Z,81.7
2018-12-12T12:01:16.649Z,81.7
2018-12-12T12:02:16.918Z,81.7
2018-12-12T12:03:17.183Z,81.9
2018-12-12T12:04:16.443Z,82.2
2018-12-12T12:05:16.714Z,81.9
2018-12-12T12:06:16.981Z,81.6
2018-12-12T12:07:18.504Z,81.9
2018-12-12T12:08:16.768Z,82.1
2018-12-12T12:09:17.027Z,81.5
2018-12-12T12:10:16.299Z,81.8
2018-12-12T12:11:16.344Z,81.8
2018-12-12T12:12:16.606Z,81.8
2018-12-12T12:13:16.867Z,82.9
2018-12-12T12:14:17.137Z,81.8
2018-12-12T12:15:16.401Z,80.5
2018-12-12T12:16:16.659Z,80.2
2018-12-12T12:17:16.922Z,79.7
2018-12-12T12:18:17.194Z,79.5
2018-12-12T12:19:16.451Z,80.7
2018-12-12T12:20:16.728Z,80.5
2018-12-12T12:21:16.783Z,79.8
2018-12-12T12:22:17.052Z,79.7
2018-12-12T12:23:16.318Z,80.0
2018-12-12T12:24:16.584Z,80.5
2018-12-12T12:25:16.848Z,80.5
2018-12-12T12:26:17.117Z,80.5
2018-12-12T12:27:16.383Z,80.0
2018-12-12T12:28:16.652Z,79.6
2018-12-12T12:29:16.886Z,79.4
2018-12-12T12:30:17.164Z,79.3
2018-12-12T12:31:17.209Z,79.1
2018-12-12T12:32:16.474Z,79.3
2018-12-12T12:33:16.732Z,79.0
2018-12-12T12:34:17.004Z,79.6
2018-12-12T12:35:16.272Z,79.2
2018-12-12T12:36:16.534Z,80.9
2018-12-12T12:37:16.795Z,80.0
2018-12-12T12:38:17.064Z,79.6
2018-12-12T12:39:16.320Z,79.2
2018-12-12T12:40:16.595Z,79.2
2018-12-12T12:41:16.648Z,79.2
2018-12-12T12:42:16.925Z,79.2
2018-12-12T12:43:17.255Z,79.0
2018-12-12T12:44:16.547Z,78.5
2018-12-12T12:45:16.814Z,79.5
2018-12-12T12:46:17.083Z,79.2
2018-12-12T12:47:16.339Z,79.2
2018-12-12T12:48:16.617Z,79.2
2018-12-12T12:49:16.887Z,79.7
2018-12-12T12:50:17.161Z,79.6
2018-12-12T12:51:17.482Z,79.4
2018-12-12T12:52:16.759Z,79.4
2018-12-12T12:53:17.031Z,79.7
2018-12-12T12:54:16.295Z,80.2
2018-12-12T12:55:16.584Z,80.4
2018-12-12T12:56:16.865Z,80.7
2018-12-12T12:57:17.136Z,80.5
2018-12-12T12:58:16.401Z,80.8
2018-12-12T12:59:16.668Z,80.2
2018-12-12T13:00:16.943Z,81.0
2018-12-12T13:01:17.014Z,80.9
2018-12-12T13:02:16.269Z,80.2
2018-12-12T13:03:16.529Z,81.3
2018-12-12T13:04:16.793Z,80.6
2018-12-12T13:05:17.054Z,80.6
2018-12-12T13:06:16.326Z,81.1
2018-12-12T13:07:16.583Z,81.0
2018-12-12T13:08:16.858Z,81.2
2018-12-12T13:09:17.126Z,80.7
2018-12-12T13:10:16.398Z,80.7
2018-12-12T13:11:16.444Z,81.7
2018-12-12T13:12:16.814Z,81.4
2018-12-12T13:13:17.441Z,81.2
2018-12-12T13:14:16.739Z,81.1
2018-12-12T13:15:17.011Z,81.1
2018-12-12T13:16:16.283Z,81.3
2018-12-12T13:17:16.553Z,81.5
2018-12-12T13:18:16.812Z,81.0